Time;durP1;ratioP1;P1;durP2;ratioP2;P2;SDS_P1;SDS_P2;PMS_P1;PMS_P2;Temp;Humidity;BMP_temperature;BMP_pressure;BME280_temperature;BME280_humidity;BME280_pressure;Samples;Min_cycle;Max_cycle;Signal;HPM_P1;HPM_P2
2023/07/23 00:00:55;;;;;;;;;4.00;3.00;;;;;22.41;34.94;100697.63;5050719;28;45314;-78
2023/07/23 00:03:21;;;;;;;;;2.00;1.00;;;;;22.42;35.29;100701.19;5041775;28;45356;-78
2023/07/23 00:05:46;;;;;;;;;2.25;2.25;;;;;22.39;35.32;100705.78;5038475;28;45364;-79
2023/07/23 00:08:11;;;;;;;;;4.75;3.00;;;;;22.38;35.29;100696.03;5034129;28;45245;-78
2023/07/23 00:10:37;;;;;;;;;2.25;2.25;;;;;22.37;35.41;100707.69;5039275;28;45324;-78
2023/07/23 00:13:02;;;;;;;;;0.25;0.00;;;;;22.32;35.45;100688.34;5041753;28;46211;-78
2023/07/23 00:15:27;;;;;;;;;2.25;2.25;;;;;22.31;35.25;100689.31;5026223;28;50851;-79
2023/07/23 00:17:53;;;;;;;;;6.25;6.25;;;;;22.28;35.87;100683.31;5034612;28;45414;-78
2023/07/23 00:20:18;;;;;;;;;5.50;4.25;;;;;22.22;35.41;100688.06;5040718;28;51826;-79
2023/07/23 00:22:43;;;;;;;;;3.75;2.00;;;;;22.22;35.95;100680.06;5041178;28;45414;-79
2023/07/23 00:25:09;;;;;;;;;1.00;1.00;;;;;22.17;36.09;100675.97;5040937;28;45348;-78
2023/07/23 00:27:35;;;;;;;;;1.50;1.50;;;;;22.13;35.92;100690.50;5041858;28;45395;-79
2023/07/23 00:30:01;;;;;;;;;5.00;3.75;;;;;22.11;36.31;100684.38;5041292;28;45383;-78
2023/07/23 00:32:26;;;;;;;;;2.25;1.00;;;;;22.08;36.48;100672.91;5041587;28;46587;-78
2023/07/23 00:34:52;;;;;;;;;2.50;1.25;;;;;22.03;36.36;100669.66;5040732;28;51606;-78
2023/07/23 00:37:17;;;;;;;;;1.50;1.50;;;;;21.99;36.62;100660.13;5041516;28;45425;-78
2023/07/23 00:39:42;;;;;;;;;2.25;2.25;;;;;21.98;36.63;100661.06;5041982;28;45406;-78
2023/07/23 00:42:08;;;;;;;;;3.75;2.00;;;;;21.97;36.21;100662.03;5041009;28;45717;-79
2023/07/23 00:44:33;;;;;;;;;2.75;2.75;;;;;21.93;36.52;100671.22;5041144;28;45313;-77
2023/07/23 00:47:02;;;;;;;;;2.50;2.50;;;;;21.93;36.81;100660.50;5041330;28;45462;-77
2023/07/23 00:49:28;;;;;;;;;2.00;2.00;;;;;21.91;37.09;100683.81;5041086;28;45344;-77
2023/07/23 00:51:54;;;;;;;;;3.50;2.00;;;;;21.87;36.87;100656.44;5040939;28;45340;-77
2023/07/23 00:54:20;;;;;;;;;3.25;2.00;;;;;21.87;37.40;100666.25;5009561;28;45340;-77
2023/07/23 00:56:47;;;;;;;;;2.00;2.00;;;;;21.85;37.17;100668.19;5041194;28;45420;-77
2023/07/23 00:59:12;;;;;;;;;2.00;2.00;;;;;21.79;37.54;100658.72;5027533;28;45264;-76
2023/07/23 01:01:37;;;;;;;;;2.00;2.00;;;;;21.80;37.30;100662.22;5040752;28;46144;-76
2023/07/23 01:04:04;;;;;;;;;2.50;2.50;;;;;21.75;37.50;100644.66;5040899;28;45233;-77
2023/07/23 01:06:33;;;;;;;;;3.00;2.25;;;;;21.76;37.36;100658.91;5047525;28;45400;-77
2023/07/23 01:09:00;;;;;;;;;3.50;3.50;;;;;21.73;37.78;100653.75;5039143;28;45485;-77
2023/07/23 01:11:27;;;;;;;;;6.00;3.50;;;;;21.70;37.69;100641.44;5040547;28;45446;-77
2023/07/23 01:13:55;;;;;;;;;2.75;2.75;;;;;21.69;37.85;100642.38;5038877;28;45277;-77
2023/07/23 01:16:20;;;;;;;;;4.00;3.25;;;;;21.67;37.83;100651.44;5022858;28;45375;-76
2023/07/23 01:18:46;;;;;;;;;3.25;3.25;;;;;21.65;37.52;100643.53;5040426;28;45237;-77
2023/07/23 01:21:12;;;;;;;;;2.00;2.00;;;;;21.62;37.74;100630.34;5040392;28;45225;-76
2023/07/23 01:23:37;;;;;;;;;2.25;2.00;;;;;21.61;38.19;100634.00;5040157;28;45399;-77
2023/07/23 01:26:03;;;;;;;;;3.00;3.00;;;;;21.58;38.36;100626.16;5048076;28;45363;-77
2023/07/23 01:28:29;;;;;;;;;1.75;1.00;;;;;21.59;38.28;100625.19;5040449;28;45257;-78
2023/07/23 01:30:55;;;;;;;;;4.75;2.50;;;;;21.54;38.55;100620.09;5039615;28;46028;-78
2023/07/23 01:33:21;;;;;;;;;3.75;2.00;;;;;21.52;38.61;100621.16;5040313;28;45261;-79
2023/07/23 01:35:47;;;;;;;;;2.00;2.00;;;;;21.49;38.01;100618.69;5047998;28;45407;-78
2023/07/23 01:38:13;;;;;;;;;5.00;3.00;;;;;21.48;38.69;100615.13;5040085;28;45280;-77
2023/07/23 01:40:40;;;;;;;;;4.00;4.00;;;;;21.47;38.21;100623.25;5040109;28;45289;-79
2023/07/23 01:43:06;;;;;;;;;2.00;2.00;;;;;21.43;38.66;100602.06;5040213;28;45285;-79
2023/07/23 01:45:32;;;;;;;;;3.75;3.00;;;;;21.45;38.41;100607.31;5040613;28;45308;-79
2023/07/23 01:47:57;;;;;;;;;3.00;3.00;;;;;21.39;38.55;100595.19;5040231;28;45516;-79
2023/07/23 01:50:23;;;;;;;;;3.00;2.50;;;;;21.39;38.23;100607.69;5040340;28;45187;-79
2023/07/23 01:52:48;;;;;;;;;2.25;2.00;;;;;21.37;38.75;100599.78;5040038;28;45332;-78
2023/07/23 01:55:13;;;;;;;;;2.75;2.75;;;;;21.38;38.64;100600.63;5046759;28;45342;-79
2023/07/23 01:57:39;;;;;;;;;2.00;2.00;;;;;21.36;38.53;100603.41;5034680;28;45375;-79
2023/07/23 02:00:05;;;;;;;;;3.25;2.00;;;;;21.35;38.95;100590.97;5042816;28;47599;-77
2023/07/23 02:02:30;;;;;;;;;1.50;1.50;;;;;21.34;39.13;100589.25;5039702;28;45399;-77
2023/07/23 02:04:56;;;;;;;;;2.00;2.00;;;;;21.33;38.95;100587.53;5040023;28;45431;-76
2023/07/23 02:07:21;;;;;;;;;2.00;2.00;;;;;21.32;39.01;100583.16;5028564;28;45364;-78
2023/07/23 02:09:51;;;;;;;;;3.00;2.00;;;;;21.33;39.27;100589.38;5027760;28;47640;-76
2023/07/23 02:12:16;;;;;;;;;3.25;2.75;;;;;21.30;39.34;100570.88;5027314;28;45372;-76
2023/07/23 02:14:42;;;;;;;;;2.75;2.75;;;;;21.30;39.87;100582.41;5040038;28;45273;-76
2023/07/23 02:17:07;;;;;;;;;3.00;3.00;;;;;21.27;39.69;100582.59;5039521;28;46919;-76
2023/07/23 02:19:33;;;;;;;;;2.00;2.00;;;;;21.27;39.57;100582.59;5039771;28;46815;-76
2023/07/23 02:21:58;;;;;;;;;2.00;2.00;;;;;21.25;39.67;100588.00;5039378;28;45431;-76
2023/07/23 02:24:23;;;;;;;;;1.75;1.00;;;;;21.19;40.09;100584.88;5039728;28;45349;-76
2023/07/23 02:26:49;;;;;;;;;1.00;1.00;;;;;21.21;39.62;100589.16;5039522;28;45462;-77
2023/07/23 02:29:14;;;;;;;;;3.00;2.00;;;;;21.21;40.10;100585.66;5039322;28;55881;-77
2023/07/23 02:31:39;;;;;;;;;2.00;2.00;;;;;21.17;39.90;100592.09;5042678;28;45344;-77
2023/07/23 02:34:05;;;;;;;;;2.75;2.75;;;;;21.14;40.27;100594.97;5048808;28;45324;-77
2023/07/23 02:36:31;;;;;;;;;4.00;3.00;;;;;21.11;40.25;100577.31;5039546;28;45391;-77
2023/07/23 02:38:56;;;;;;;;;3.00;3.00;;;;;21.12;40.45;100573.72;5036403;28;46269;-77
2023/07/23 02:41:22;;;;;;;;;3.00;2.50;;;;;21.06;40.37;100580.28;5021338;28;57675;-77
2023/07/23 02:43:48;;;;;;;;;3.75;3.00;;;;;21.05;40.20;100567.00;5041163;28;45399;-77
2023/07/23 02:46:13;;;;;;;;;2.00;2.00;;;;;21.06;40.80;100580.28;5028425;28;45202;-77
2023/07/23 02:48:39;;;;;;;;;2.25;2.25;;;;;21.06;40.47;100579.44;5043134;28;45317;-77
2023/07/23 02:51:04;;;;;;;;;3.00;3.00;;;;;21.04;40.24;100576.84;5042828;28;46204;-77
2023/07/23 02:53:29;;;;;;;;;4.75;4.00;;;;;21.05;40.32;100577.69;5042956;28;45290;-77
2023/07/23 02:55:54;;;;;;;;;3.00;3.00;;;;;21.02;40.78;100578.75;5042588;28;45350;-76
2023/07/23 02:58:20;;;;;;;;;3.00;3.00;;;;;21.04;40.26;100575.97;5034257;28;45484;-76
2023/07/23 03:00:45;;;;;;;;;4.50;3.75;;;;;21.00;40.50;100577.13;5032426;28;45372;-76
2023/07/23 03:03:11;;;;;;;;;3.50;3.50;;;;;21.02;40.98;100580.53;5030392;28;45441;-76
2023/07/23 03:05:36;;;;;;;;;3.25;2.00;;;;;21.03;40.39;100575.13;5038899;28;51909;-77
2023/07/23 03:08:02;;;;;;;;;2.00;2.00;;;;;21.04;40.40;100578.66;5042825;28;46013;-77
2023/07/23 03:10:28;;;;;;;;;3.00;3.00;;;;;21.01;40.68;100574.34;5042294;28;45493;-77
2023/07/23 03:12:54;;;;;;;;;5.25;3.00;;;;;21.02;41.18;100577.88;5042597;28;45448;-76
2023/07/23 03:15:19;;;;;;;;;2.00;2.00;;;;;21.01;40.74;100574.34;5042425;28;45316;-78
2023/07/23 03:17:44;;;;;;;;;2.50;2.50;;;;;21.01;40.90;100571.69;5030230;28;47676;-77
2023/07/23 03:20:10;;;;;;;;;3.00;3.00;;;;;21.01;41.20;100577.03;5042213;28;48236;-77
2023/07/23 03:22:39;;;;;;;;;4.00;3.00;;;;;21.01;40.84;100573.50;5052290;28;45528;-77
2023/07/23 03:25:04;;;;;;;;;3.50;3.25;;;;;21.02;41.28;100572.53;5041873;28;45241;-78
2023/07/23 03:27:29;;;;;;;;;4.25;3.00;;;;;21.01;40.81;100569.00;5041101;28;46371;-78
2023/07/23 03:29:55;;;;;;;;;3.00;3.00;;;;;20.99;41.07;100572.72;5039267;28;45513;-78
2023/07/23 03:32:20;;;;;;;;;3.00;2.25;;;;;20.99;41.96;100567.38;5042311;28;45272;-78
2023/07/23 03:34:45;;;;;;;;;6.25;2.00;;;;;21.00;41.84;100558.44;5042159;28;45288;-79
2023/07/23 03:37:10;;;;;;;;;3.75;3.50;;;;;21.00;41.24;100563.75;5042168;28;45425;-76
2023/07/23 03:39:36;;;;;;;;;3.75;3.00;;;;;20.96;41.06;100551.56;5041719;28;49037;-77
2023/07/23 03:42:02;;;;;;;;;5.50;3.50;;;;;20.94;41.41;100554.31;5041966;28;45435;-76
2023/07/23 03:44:28;;;;;;;;;4.25;3.00;;;;;20.96;41.43;100571.09;5042248;28;45440;-76
2023/07/23 03:47:09;;;;;;;;;3.50;3.50;;;;;20.93;41.63;100563.28;5042042;28;45381;-76
2023/07/23 03:49:34;;;;;;;;;3.25;3.25;;;;;20.92;42.01;100558.91;5041928;28;45445;-76
2023/07/23 03:52:00;;;;;;;;;4.25;3.00;;;;;20.91;42.16;100570.53;5042220;28;45253;-76
2023/07/23 03:54:26;;;;;;;;;3.25;3.25;;;;;20.89;42.25;100561.72;5039930;28;45447;-76
2023/07/23 03:56:52;;;;;;;;;3.00;3.00;;;;;20.84;42.41;100543.34;5039931;28;46133;-76
2023/07/23 03:59:17;;;;;;;;;6.50;4.00;;;;;20.86;42.07;100562.78;5034164;28;45306;-76
2023/07/23 04:01:43;;;;;;;;;5.00;5.00;;;;;20.83;41.96;100544.28;5032000;28;45865;-76
2023/07/23 04:04:08;;;;;;;;;4.00;4.00;;;;;20.76;42.21;100537.59;5038872;28;55451;-76
2023/07/23 04:06:33;;;;;;;;;4.00;3.25;;;;;20.80;42.39;100557.81;5047692;28;45558;-77
2023/07/23 04:08:58;;;;;;;;;4.50;4.50;;;;;20.76;42.35;100533.09;5040031;28;55146;-77
2023/07/23 04:11:24;;;;;;;;;3.25;3.25;;;;;20.75;42.34;100539.41;5041762;28;45346;-77
2023/07/23 04:13:50;;;;;;;;;2.75;2.75;;;;;20.77;42.35;100523.28;5041450;28;45299;-77
2023/07/23 04:16:15;;;;;;;;;4.50;2.75;;;;;20.72;42.70;100526.22;5036898;28;47081;-77
2023/07/23 04:18:46;;;;;;;;;5.00;4.00;;;;;20.68;43.18;100522.00;5037696;28;45315;-77
2023/07/23 04:21:11;;;;;;;;;5.50;5.00;;;;;20.72;43.29;100528.06;5041453;28;45423;-77
2023/07/23 04:23:37;;;;;;;;;4.00;4.00;;;;;20.70;42.82;100545.94;5040947;28;45312;-77
2023/07/23 04:26:02;;;;;;;;;2.00;2.00;;;;;20.69;43.42;100536.19;5040904;28;54165;-77
2023/07/23 04:28:27;;;;;;;;;2.00;2.00;;;;;20.67;42.97;100541.63;5041359;28;45291;-77
2023/07/23 04:30:53;;;;;;;;;6.25;3.50;;;;;20.69;43.02;100552.22;5041307;28;53027;-78
2023/07/23 04:33:18;;;;;;;;;4.00;4.00;;;;;20.56;43.37;100517.41;5041028;28;47258;-77
2023/07/23 04:35:43;;;;;;;;;2.50;2.50;;;;;20.66;43.13;100534.56;5041304;28;45374;-77
2023/07/23 04:38:09;;;;;;;;;3.00;2.00;;;;;20.64;43.12;100533.81;5036658;28;45366;-78
2023/07/23 04:40:35;;;;;;;;;2.75;2.25;;;;;20.62;43.40;100531.22;5037457;28;45675;-75
2023/07/23 04:43:00;;;;;;;;;4.00;4.00;;;;;20.62;43.77;100520.53;5039264;28;45470;-74
2023/07/23 04:45:25;;;;;;;;;2.00;2.00;;;;;20.62;43.61;100531.22;5041021;28;46172;-73
2023/07/23 04:47:51;;;;;;;;;3.50;3.50;;;;;20.62;43.75;100525.03;5041113;28;45459;-74
2023/07/23 04:50:16;;;;;;;;;5.00;2.75;;;;;20.63;43.54;100532.09;5041191;28;45420;-74
2023/07/23 04:52:41;;;;;;;;;4.50;2.00;;;;;20.61;43.84;100528.66;5040975;28;45319;-74
2023/07/23 04:55:08;;;;;;;;;2.75;2.50;;;;;20.58;44.06;100518.19;5022351;28;54127;-74
2023/07/23 04:57:33;;;;;;;;;3.00;2.00;;;;;20.60;44.39;100529.59;5038579;28;45325;-75
2023/07/23 04:59:59;;;;;;;;;4.75;2.50;;;;;20.59;43.98;100533.22;5030082;28;45175;-75
2023/07/23 05:02:24;;;;;;;;;2.50;2.50;;;;;20.57;43.79;100538.66;5040647;28;48789;-75
2023/07/23 05:04:50;;;;;;;;;3.00;3.00;;;;;20.58;43.90;100526.19;5040477;28;54449;-74
2023/07/23 05:07:15;;;;;;;;;2.00;2.00;;;;;20.56;44.49;100528.06;5030972;28;45892;-74
2023/07/23 05:09:43;;;;;;;;;3.00;3.00;;;;;20.48;44.54;100520.53;5040595;28;45252;-74
2023/07/23 05:12:09;;;;;;;;;3.75;3.00;;;;;20.53;44.99;100530.94;5040511;28;45452;-74
2023/07/23 05:14:35;;;;;;;;;1.50;1.50;;;;;20.51;44.46;100524.81;5033080;28;50603;-77
2023/07/23 05:17:00;;;;;;;;;5.00;3.25;;;;;20.53;44.70;100528.28;5039063;28;45329;-78
2023/07/23 05:19:26;;;;;;;;;3.00;2.25;;;;;20.50;45.15;100523.09;5038070;28;45787;-76
2023/07/23 05:21:51;;;;;;;;;3.50;3.00;;;;;20.48;44.40;100509.84;5040129;28;45427;-77
2023/07/23 05:24:16;;;;;;;;;4.00;3.00;;;;;20.48;45.30;100511.66;5036090;28;46159;-76
2023/07/23 05:26:42;;;;;;;;;3.75;3.00;;;;;20.45;45.43;100515.34;5030848;28;45595;-77
2023/07/23 05:29:07;;;;;;;;;7.00;4.00;;;;;20.49;45.12;100526.72;5034837;28;45420;-76
2023/07/23 05:31:32;;;;;;;;;3.00;3.00;;;;;20.47;45.29;100518.81;5040013;28;51428;-77
2023/07/23 05:33:58;;;;;;;;;3.25;3.00;;;;;20.49;45.22;100516.91;5028667;28;47040;-76
2023/07/23 05:36:23;;;;;;;;;5.25;4.00;;;;;20.45;46.01;100512.69;5040279;28;45404;-79
2023/07/23 05:38:48;;;;;;;;;4.50;4.50;;;;;20.44;45.42;100503.84;5040153;28;45271;-78
2023/07/23 05:41:14;;;;;;;;;3.00;3.00;;;;;20.46;45.78;100509.94;5035768;28;45526;-77
2023/07/23 05:43:39;;;;;;;;;3.00;3.00;;;;;20.49;45.94;100513.38;5015506;28;46943;-77
2023/07/23 05:46:04;;;;;;;;;3.00;3.00;;;;;20.49;45.89;100508.03;5039869;28;51491;-78
2023/07/23 05:48:30;;;;;;;;;3.00;3.00;;;;;20.49;46.21;100506.25;5037957;28;45401;-65
2023/07/23 05:50:55;;;;;;;;;4.25;4.25;;;;;20.50;45.96;100509.75;5031707;28;45430;-71
2023/07/23 05:53:20;;;;;;;;;4.00;3.00;;;;;20.52;46.17;100507.88;5039523;28;46264;-71
2023/07/23 05:55:46;;;;;;;;;4.25;4.25;;;;;20.50;46.25;100507.09;5053257;28;45268;-70
2023/07/23 05:58:11;;;;;;;;;3.00;2.75;;;;;20.54;46.09;100509.50;5032756;28;45154;-64
2023/07/23 06:00:36;;;;;;;;;2.75;2.75;;;;;20.58;46.03;100519.03;5034060;28;49544;-70
2023/07/23 06:03:02;;;;;;;;;4.25;4.00;;;;;20.59;46.36;100519.88;5039879;28;45361;-69
2023/07/23 06:05:27;;;;;;;;;3.00;3.00;;;;;20.61;46.27;100509.97;5036419;28;45313;-65
2023/07/23 06:07:52;;;;;;;;;3.00;3.00;;;;;20.61;46.10;100513.47;5034894;28;45306;-65
2023/07/23 06:10:18;;;;;;;;;3.00;3.00;;;;;20.62;46.53;100512.53;5031754;28;45723;-65
2023/07/23 06:12:43;;;;;;;;;4.50;4.50;;;;;20.62;46.64;100522.38;5039294;28;45589;-66
2023/07/23 06:15:09;;;;;;;;;4.25;4.25;;;;;20.63;46.93;100506.25;5039413;28;45372;-63
2023/07/23 06:17:34;;;;;;;;;3.00;3.00;;;;;20.60;46.98;100510.91;5038709;28;45408;-68
2023/07/23 06:20:00;;;;;;;;;3.50;3.50;;;;;20.63;46.89;100502.75;5040217;28;45519;-64
2023/07/23 06:22:25;;;;;;;;;5.75;3.75;;;;;20.65;46.34;100530.19;5052041;28;46031;-64
2023/07/23 06:24:51;;;;;;;;;4.50;4.50;;;;;20.67;46.69;100530.13;5038657;28;45447;-62
2023/07/23 06:27:16;;;;;;;;;5.00;4.00;;;;;20.67;46.98;100522.94;5038688;28;45343;-62
2023/07/23 06:29:41;;;;;;;;;4.25;4.25;;;;;20.68;46.76;100508.66;5032260;28;45417;-62
2023/07/23 06:32:08;;;;;;;;;2.00;1.00;;;;;20.73;46.53;100519.09;5028810;28;46162;-62
2023/07/23 06:34:33;;;;;;;;;3.00;3.00;;;;;20.74;46.97;100511.00;5045561;28;45237;-62
2023/07/23 06:36:58;;;;;;;;;4.00;4.00;;;;;20.79;46.64;100516.03;5039795;28;45455;-63
2023/07/23 06:39:24;;;;;;;;;3.75;3.00;;;;;20.83;46.60;100519.38;5031979;28;45565;-64
2023/07/23 06:41:49;;;;;;;;;5.50;4.25;;;;;20.83;46.82;100503.34;5037697;28;50085;-63
2023/07/23 06:44:14;;;;;;;;;3.25;2.75;;;;;20.90;46.59;100513.56;5039298;28;45341;-62
2023/07/23 06:46:40;;;;;;;;;5.75;5.75;;;;;20.94;46.36;100511.56;5039606;28;45213;-64
2023/07/23 06:49:05;;;;;;;;;4.50;3.50;;;;;21.00;46.32;100515.69;5039259;28;45487;-67
2023/07/23 06:51:30;;;;;;;;;4.25;3.00;;;;;21.03;46.89;100510.16;5039329;28;46026;-68
2023/07/23 06:53:56;;;;;;;;;4.00;4.00;;;;;21.08;46.77;100524.94;5038419;28;55645;-67
2023/07/23 06:56:21;;;;;;;;;4.00;4.00;;;;;21.10;47.02;100522.19;5039220;28;45364;-69
2023/07/23 06:58:47;;;;;;;;;3.75;3.75;;;;;21.11;46.90;100535.44;5025567;28;45238;-67
2023/07/23 07:01:12;;;;;;;;;3.50;3.50;;;;;21.16;46.48;100515.59;5037937;28;46777;-66
2023/07/23 07:03:37;;;;;;;;;5.00;4.25;;;;;21.16;46.27;100520.94;5029781;28;45460;-67
2023/07/23 07:06:06;;;;;;;;;4.00;4.00;;;;;21.18;46.54;100519.03;5035099;28;45474;-66
2023/07/23 07:08:32;;;;;;;;;4.75;3.50;;;;;21.16;46.71;100520.94;5039092;28;45398;-67
2023/07/23 07:11:02;;;;;;;;;5.50;5.50;;;;;21.21;46.30;100530.38;5044007;28;45432;-66
2023/07/23 07:13:28;;;;;;;;;5.25;4.25;;;;;21.24;46.24;100524.00;5042990;28;45415;-66
2023/07/23 07:15:53;;;;;;;;;4.75;4.75;;;;;21.25;46.23;100525.72;5038898;28;45300;-66
2023/07/23 07:18:19;;;;;;;;;2.50;2.50;;;;;21.23;46.30;100514.25;5038583;28;45299;-66
2023/07/23 07:20:45;;;;;;;;;2.00;2.00;;;;;21.25;46.26;100523.03;5038709;28;46963;-69
2023/07/23 07:23:10;;;;;;;;;3.50;3.00;;;;;21.25;46.28;100512.34;5051537;28;45366;-68
2023/07/23 07:25:38;;;;;;;;;4.00;3.00;;;;;21.25;46.19;100505.19;5038839;28;45704;-68
2023/07/23 07:28:04;;;;;;;;;4.00;4.00;;;;;21.26;46.38;100508.72;5038565;28;45321;-73
2023/07/23 07:30:29;;;;;;;;;4.75;2.75;;;;;21.27;46.49;100508.63;5041341;28;46311;-62
2023/07/23 07:32:54;;;;;;;;;3.00;3.00;;;;;21.31;46.53;100498.59;5041765;28;57096;-60
2023/07/23 07:35:19;;;;;;;;;4.50;3.50;;;;;21.30;46.17;100514.75;5042032;28;51104;-62
2023/07/23 07:37:46;;;;;;;;;7.25;5.00;;;;;21.35;46.76;100486.75;5042404;28;45371;-65
2023/07/23 07:40:13;;;;;;;;;4.00;3.00;;;;;21.38;46.83;100491.94;5061601;28;46302;-65
2023/07/23 07:42:38;;;;;;;;;4.50;4.50;;;;;21.43;46.30;100503.19;5047911;28;45528;-62
2023/07/23 07:45:04;;;;;;;;;5.00;4.00;;;;;21.45;46.66;100511.09;5040559;28;47774;-67
2023/07/23 07:47:29;;;;;;;;;4.75;3.75;;;;;21.49;46.60;100506.41;5041567;28;45546;-65
2023/07/23 07:49:54;;;;;;;;;4.00;4.00;;;;;21.52;46.33;100512.44;5042243;28;45592;-65
2023/07/23 07:52:20;;;;;;;;;4.00;2.75;;;;;21.54;46.40;100510.50;5039844;28;45686;-65
2023/07/23 07:54:45;;;;;;;;;5.50;2.75;;;;;21.57;46.13;100512.16;5039832;28;47369;-66
2023/07/23 07:57:12;;;;;;;;;4.00;4.00;;;;;21.61;46.78;100503.00;5041725;28;45331;-64
2023/07/23 07:59:37;;;;;;;;;5.75;5.50;;;;;21.64;46.13;100518.81;5027196;28;46197;-63
2023/07/23 08:02:03;;;;;;;;;4.00;4.00;;;;;21.67;46.44;100510.63;5039912;28;45548;-64
2023/07/23 08:04:28;;;;;;;;;4.00;3.00;;;;;21.71;46.49;100512.13;5041921;28;45242;-65
2023/07/23 08:06:54;;;;;;;;;5.00;4.75;;;;;21.76;46.02;100527.88;5037622;28;45573;-66
2023/07/23 08:09:22;;;;;;;;;3.00;3.00;;;;;21.80;46.37;100526.72;5041039;28;46059;-61
2023/07/23 08:11:48;;;;;;;;;5.00;5.00;;;;;21.83;46.02;100521.16;5041185;28;45226;-63
2023/07/23 08:14:15;;;;;;;;;3.00;3.00;;;;;21.85;46.21;100524.59;5034885;28;46112;-64
2023/07/23 08:16:41;;;;;;;;;3.75;3.00;;;;;21.90;46.08;100522.47;5031478;28;45472;-64
2023/07/23 08:19:08;;;;;;;;;5.50;3.25;;;;;21.97;46.46;100522.94;5034506;28;45413;-67
2023/07/23 08:21:33;;;;;;;;;3.25;3.00;;;;;22.00;46.26;100528.09;5037884;28;45468;-64
2023/07/23 08:23:59;;;;;;;;;3.75;3.75;;;;;22.04;46.15;100531.44;5037915;28;45401;-65
2023/07/23 08:26:26;;;;;;;;;5.50;3.75;;;;;22.11;46.34;100521.16;5040944;28;45439;-65
2023/07/23 08:29:02;;;;;;;;;5.25;3.00;;;;;22.14;46.41;100521.84;5021954;28;46139;-65
2023/07/23 08:31:28;;;;;;;;;3.25;3.25;;;;;22.20;46.03;100545.50;5037903;28;45436;-65
2023/07/23 08:33:55;;;;;;;;;5.00;5.00;;;;;22.23;46.14;100523.88;5018876;28;45594;-65
2023/07/23 08:36:20;;;;;;;;;5.00;3.75;;;;;22.25;46.03;100521.13;5035695;28;45582;-66
2023/07/23 08:38:46;;;;;;;;;5.75;4.00;;;;;22.27;45.92;100527.22;5040924;28;46303;-66
2023/07/23 08:41:20;;;;;;;;;4.75;4.75;;;;;22.31;45.91;100534.06;5040809;28;45324;-67
2023/07/23 08:44:17;;;;;;;;;3.00;2.00;;;;;22.33;45.87;100528.63;5034596;28;45518;-64
2023/07/23 08:46:45;;;;;;;;;5.50;4.00;;;;;22.34;45.91;100520.50;5044916;28;45453;-63
2023/07/23 08:49:11;;;;;;;;;2.00;2.00;;;;;22.37;45.84;100531.00;5048526;28;46873;-62
2023/07/23 08:51:47;;;;;;;;;5.75;3.50;;;;;22.37;46.04;100520.31;5039470;28;45675;-63
2023/07/23 08:54:14;;;;;;;;;3.00;3.00;;;;;22.41;46.34;100529.00;5045036;28;45182;-63
2023/07/23 08:56:42;;;;;;;;;4.25;3.00;;;;;22.44;45.71;100530.59;5042993;28;45491;-63
2023/07/23 08:59:08;;;;;;;;;4.75;4.00;;;;;22.46;45.91;100534.03;5028762;28;45432;-64
2023/07/23 09:01:36;;;;;;;;;6.00;2.00;;;;;22.46;46.15;100545.59;5030237;28;45360;-64
2023/07/23 09:04:02;;;;;;;;;3.00;3.00;;;;;22.48;46.22;100541.00;5028084;28;45440;-64
2023/07/23 09:06:29;;;;;;;;;3.50;3.00;;;;;22.49;46.11;100533.81;5036120;28;45265;-64
2023/07/23 09:09:03;;;;;;;;;4.00;2.50;;;;;22.50;46.05;100548.94;5045515;28;45515;-63
2023/07/23 09:11:29;;;;;;;;;3.75;3.75;;;;;22.51;45.96;100538.13;5031064;28;45495;-64
2023/07/23 09:13:58;;;;;;;;;4.25;3.50;;;;;22.51;46.14;100523.88;5040462;28;45311;-63
2023/07/23 09:16:23;;;;;;;;;5.00;4.00;;;;;22.56;46.17;100535.13;5040782;28;46630;-64
2023/07/23 09:18:49;;;;;;;;;2.00;2.00;;;;;22.57;46.24;100542.22;5040411;28;46067;-63
2023/07/23 09:21:22;;;;;;;;;4.75;4.00;;;;;22.59;45.93;100537.63;5040700;28;45258;-64
2023/07/23 09:23:50;;;;;;;;;5.00;5.00;;;;;22.60;46.17;100552.69;5040446;28;45351;-63
2023/07/23 09:26:19;;;;;;;;;4.00;3.50;;;;;22.61;46.29;100542.88;5051790;28;45197;-64
2023/07/23 09:28:44;;;;;;;;;2.50;2.00;;;;;22.62;46.09;100537.41;5040994;28;46118;-63
2023/07/23 09:31:10;;;;;;;;;3.00;3.00;;;;;22.62;46.05;100548.09;5040347;28;46635;-63
2023/07/23 09:33:36;;;;;;;;;4.75;4.25;;;;;22.61;46.09;100538.34;5040064;28;45394;-63
2023/07/23 09:36:03;;;;;;;;;3.25;1.25;;;;;22.65;45.73;100528.28;5040350;28;45417;-63
2023/07/23 09:38:30;;;;;;;;;5.00;4.75;;;;;22.66;45.90;100530.84;5046014;28;45798;-63
2023/07/23 09:40:55;;;;;;;;;2.75;2.75;;;;;22.66;46.18;100525.50;5047176;28;45447;-64
2023/07/23 09:43:21;;;;;;;;;5.00;3.00;;;;;22.68;46.22;100544.16;5040212;28;45349;-64
2023/07/23 09:45:47;;;;;;;;;4.50;4.50;;;;;22.70;46.28;100547.56;5040357;28;45529;-63
2023/07/23 09:48:16;;;;;;;;;5.00;5.00;;;;;22.70;46.38;100551.13;5040098;28;45958;-64
2023/07/23 09:50:41;;;;;;;;;2.50;2.50;;;;;22.71;46.13;100557.34;5032272;28;45375;-64
2023/07/23 09:53:10;;;;;;;;;4.50;3.00;;;;;22.72;46.40;100578.66;5039666;28;45696;-64
2023/07/23 09:55:37;;;;;;;;;1.75;0.25;;;;;22.68;46.22;100549.53;5040015;28;45418;-64
2023/07/23 09:58:05;;;;;;;;;5.00;5.00;;;;;22.70;46.16;100591.31;5033624;28;46348;-64
2023/07/23 10:00:33;;;;;;;;;6.75;5.50;;;;;22.70;46.14;100561.84;5044842;28;45664;-64
2023/07/23 10:03:00;;;;;;;;;6.00;3.00;;;;;22.70;46.52;100566.31;5039922;28;45407;-64
2023/07/23 10:05:26;;;;;;;;;1.00;1.00;;;;;22.67;46.52;100564.72;5036295;28;45289;-64
2023/07/23 10:07:52;;;;;;;;;4.00;4.00;;;;;22.66;46.59;100570.19;5040115;28;46266;-64
2023/07/23 10:10:18;;;;;;;;;6.25;5.00;;;;;22.65;46.77;100571.97;5032126;28;45285;-64
2023/07/23 10:12:43;;;;;;;;;3.25;3.25;;;;;22.66;46.83;100571.03;5040044;28;45312;-64
2023/07/23 10:15:09;;;;;;;;;6.25;5.00;;;;;22.67;47.22;100586.13;5039547;28;45530;-64
2023/07/23 10:17:46;;;;;;;;;5.00;5.00;;;;;22.64;47.22;100580.13;5039863;28;45405;-63
2023/07/23 10:20:14;;;;;;;;;7.00;3.00;;;;;22.65;47.09;100584.53;5039573;28;45280;-64
2023/07/23 10:22:43;;;;;;;;;7.00;5.00;;;;;22.62;47.24;100580.25;5039661;28;45290;-64
2023/07/23 10:25:32;;;;;;;;;3.00;3.00;;;;;22.64;47.30;100574.78;5039175;28;45570;-64
2023/07/23 10:28:05;;;;;;;;;9.50;5.25;;;;;22.61;47.18;100578.53;5039492;28;46309;-64
2023/07/23 10:30:38;;;;;;;;;4.75;4.75;;;;;22.55;47.53;100581.59;5027271;28;45401;-64
2023/07/23 10:33:10;;;;;;;;;4.25;4.25;;;;;22.61;47.58;100589.22;5039457;28;45277;-64
2023/07/23 10:35:54;;;;;;;;;3.75;3.75;;;;;22.61;47.92;100588.38;5048888;28;45361;-64
2023/07/23 10:38:29;;;;;;;;;4.50;3.50;;;;;22.58;47.93;100586.78;5040164;28;45328;-63
2023/07/23 10:40:55;;;;;;;;;5.00;5.00;;;;;22.58;47.87;100589.44;5036778;28;45412;-63
2023/07/23 10:43:21;;;;;;;;;5.50;4.25;;;;;22.56;48.45;100584.22;5038544;28;45402;-62
2023/07/23 10:46:06;;;;;;;;;6.50;4.50;;;;;22.52;48.42;100589.84;5039143;28;45579;-63
2023/07/23 10:48:42;;;;;;;;;4.50;4.00;;;;;22.48;48.23;100583.84;5038150;28;45850;-63
2023/07/23 10:51:09;;;;;;;;;6.75;5.75;;;;;22.44;48.58;100585.03;5038372;28;45464;-63
2023/07/23 10:53:41;;;;;;;;;5.00;5.00;;;;;22.44;48.60;100602.88;5039214;28;45351;-64
2023/07/23 10:56:27;;;;;;;;;6.00;6.00;;;;;22.40;48.87;100583.47;5038784;28;45475;-63
2023/07/23 10:59:21;;;;;;;;;4.50;4.50;;;;;22.41;48.70;100595.91;5025773;28;46042;-62
2023/07/23 11:01:50;;;;;;;;;5.50;5.50;;;;;22.37;49.16;100594.41;5028650;28;45316;-63
2023/07/23 11:04:25;;;;;;;;;9.75;9.25;;;;;22.37;48.79;100597.09;5025559;28;45475;-64
2023/07/23 11:06:57;;;;;;;;;6.50;4.50;;;;;22.37;49.09;100599.75;5035391;28;45406;-65
2023/07/23 11:09:41;;;;;;;;;5.25;4.25;;;;;22.34;49.06;100594.56;5041990;28;46207;-63
2023/07/23 11:12:09;;;;;;;;;13.50;13.25;;;;;22.34;49.42;100594.56;5041875;28;45523;-62
2023/07/23 11:14:35;;;;;;;;;27.50;23.00;;;;;22.32;49.15;100578.63;5040979;28;45293;-62
2023/07/23 11:17:02;;;;;;;;;15.50;14.50;;;;;22.32;49.31;100593.81;5042065;28;45594;-62
2023/07/23 11:19:29;;;;;;;;;32.75;29.75;;;;;22.32;49.27;100593.81;5041776;28;45643;-62
2023/07/23 11:22:00;;;;;;;;;10.50;7.25;;;;;22.31;49.54;100590.28;5045531;28;45689;-63